Terminal Aerodrome Forecast
Issued by NWS

Home | Current Version | Previous Version | Graphics & Text | Print | Product List | Glossary On
Versions: 1 2 3 4 5 6 7 8 9 10 11 12 13 14 15 16 17 18 19 20 21 22
000
FTUS43 KICT 280520
TAFCNU
TAF
KCNU 280520Z 2806/2906 14008KT P6SM SCT080 BKN150
     FM281200 18015G23KT P6SM VCTS SCT040CB BKN080
      TEMPO 2812/2816 -TSRA
     FM282000 20014KT P6SM VCTS BKN100CB
     FM290100 18006KT P6SM BKN050=

USA.gov is the U.S. government's official web portal to all federal, state and local government web resources and services.